createdAt,value
2019-01-08T03:23:26.524Z,101926.62
2019-01-08T03:25:56.503Z,101937.57
2019-01-08T03:28:26.262Z,101928.08
2019-01-08T03:30:56.077Z,101930.27
2019-01-08T03:33:26.004Z,101922.52
2019-01-08T03:35:55.707Z,101919.94
2019-01-08T03:38:25.630Z,101928.96
2019-01-08T03:40:55.593Z,101926.22
2019-01-08T03:43:25.286Z,101923.94
2019-01-08T03:45:54.992Z,101922.94
2019-01-08T03:48:24.767Z,101922.58
2019-01-08T03:50:54.613Z,101934.23
2019-01-08T03:53:24.536Z,101934.73
2019-01-08T03:55:54.327Z,101928.30
2019-01-08T03:58:24.121Z,101924.96
2019-01-08T04:00:53.764Z,101926.08
2019-01-08T04:03:23.518Z,101928.76
2019-01-08T04:05:53.543Z,101928.20
2019-01-08T04:08:23.198Z,101922.47
2019-01-08T04:10:52.999Z,101923.44
2019-01-08T04:13:22.926Z,101919.14
2019-01-08T04:15:52.839Z,101919.53
2019-01-08T04:18:22.864Z,101920.15
2019-01-08T04:20:52.754Z,101924.60
2019-01-08T04:23:24.881Z,101920.09
2019-01-08T04:25:54.866Z,101919.78
2019-01-08T04:28:24.674Z,101914.72
2019-01-08T04:30:54.392Z,101912.91
2019-01-08T04:33:24.084Z,101918.77
2019-01-08T04:35:54.071Z,101916.69
2019-01-08T04:38:23.914Z,101911.28
2019-01-08T04:40:53.738Z,101924.75
2019-01-08T04:43:23.633Z,101918.48
2019-01-08T04:45:53.442Z,101912.03
2019-01-08T04:48:23.360Z,101918.83
2019-01-08T04:50:53.093Z,101913.00
2019-01-08T04:53:22.947Z,101911.80
2019-01-08T04:55:52.581Z,101918.27
2019-01-08T04:58:22.238Z,101911.23
2019-01-08T05:00:51.943Z,101916.55
2019-01-08T05:03:21.694Z,101915.98
2019-01-08T05:05:53.470Z,101913.90
2019-01-08T05:08:22.926Z,101930.62
2019-01-08T05:10:53.914Z,101916.84
2019-01-08T05:13:23.808Z,101921.16
2019-01-08T05:15:53.618Z,101921.05
2019-01-08T05:18:23.513Z,101918.52
2019-01-08T05:20:53.232Z,101924.39
2019-01-08T05:23:22.871Z,101921.21
2019-01-08T05:25:52.753Z,101925.01
2019-01-08T05:28:22.756Z,101918.83
2019-01-08T05:30:52.626Z,101918.20
2019-01-08T05:33:22.489Z,101913.25
2019-01-08T05:35:52.341Z,101918.63
2019-01-08T05:38:22.030Z,101921.09
2019-01-08T05:40:51.853Z,101918.75
2019-01-08T05:43:22.846Z,101915.92
2019-01-08T05:45:52.393Z,101915.22
2019-01-08T05:48:22.108Z,101912.50
2019-01-08T05:50:52.091Z,101908.75
2019-01-08T05:53:21.731Z,101908.08
2019-01-08T05:55:51.645Z,101914.71
2019-01-08T05:58:21.437Z,101913.75
2019-01-08T06:00:51.242Z,101916.98
2019-01-08T06:03:20.986Z,101917.03
2019-01-08T06:05:50.983Z,101913.28
2019-01-08T06:08:20.961Z,101911.37
2019-01-08T06:10:50.730Z,101913.61
2019-01-08T06:13:20.535Z,101908.84
2019-01-08T06:15:50.667Z,101905.16
2019-01-08T06:18:20.291Z,101909.92
2019-01-08T06:20:50.214Z,101893.19
2019-01-08T06:23:22.403Z,101901.30
2019-01-08T06:25:52.262Z,101899.62
2019-01-08T06:28:21.859Z,101898.50
2019-01-08T06:30:51.504Z,101901.53
2019-01-08T06:33:21.226Z,101892.80
2019-01-08T06:35:50.879Z,101879.73
2019-01-08T06:38:20.852Z,101887.11
2019-01-08T06:40:57.530Z,101877.55
2019-01-08T06:43:22.558Z,101876.45
2019-01-08T06:45:52.358Z,101873.95
2019-01-08T06:48:22.136Z,101872.11
2019-01-08T06:50:56.301Z,101863.28
2019-01-08T06:53:23.559Z,101859.09
2019-01-08T06:55:53.753Z,101863.16
2019-01-08T06:58:23.433Z,101864.52
2019-01-08T07:00:53.178Z,101869.70
2019-01-08T07:03:22.875Z,101868.40
2019-01-08T07:05:52.800Z,101869.45
2019-01-08T07:08:22.634Z,101867.69
2019-01-08T07:10:52.466Z,101862.92
2019-01-08T07:13:22.187Z,101866.02
2019-01-08T07:15:51.858Z,101867.44
2019-01-08T07:18:21.541Z,101868.86
2019-01-08T07:20:51.351Z,101866.12
2019-01-08T07:23:22.376Z,101859.41
2019-01-08T07:25:52.133Z,101854.45
2019-01-08T07:28:23.321Z,101852.06
2019-01-08T07:30:53.087Z,101856.28
2019-01-08T07:33:23.117Z,101850.05
2019-01-08T07:35:52.783Z,101849.32
2019-01-08T07:38:22.430Z,101845.10
2019-01-08T07:40:52.123Z,101846.66
2019-01-08T07:43:21.902Z,101843.73
2019-01-08T07:45:51.664Z,101837.42
2019-01-08T07:48:21.562Z,101834.41
2019-01-08T07:50:52.502Z,101829.53
2019-01-08T07:53:22.144Z,101825.47
2019-01-08T07:55:51.853Z,101824.20
2019-01-08T07:58:21.793Z,101827.91
2019-01-08T08:00:51.703Z,101829.27
2019-01-08T08:03:21.682Z,101836.22
2019-01-08T08:05:51.713Z,101827.84
2019-01-08T08:08:22.537Z,101824.73
2019-01-08T08:10:52.164Z,101827.77
2019-01-08T08:13:22.026Z,101826.03
2019-01-08T08:15:52.079Z,101828.39
2019-01-08T08:18:21.913Z,101817.75
2019-01-08T08:20:52.988Z,101824.23
2019-01-08T08:23:22.866Z,101815.34
2019-01-08T08:25:52.690Z,101819.18
2019-01-08T08:28:22.487Z,101820.95
2019-01-08T08:30:58.612Z,101809.37
2019-01-08T08:33:24.065Z,101802.70
2019-01-08T08:35:53.827Z,101798.06
2019-01-08T08:38:23.811Z,101798.20
2019-01-08T08:40:53.531Z,101786.11
2019-01-08T08:43:24.481Z,101776.64
2019-01-08T08:45:54.091Z,101777.47
2019-01-08T08:48:23.767Z,101780.56
2019-01-08T08:50:54.124Z,101764.95
2019-01-08T08:53:23.935Z,101762.75
2019-01-08T08:55:53.673Z,101754.33
2019-01-08T08:58:23.226Z,101753.62
2019-01-08T09:00:52.975Z,101744.02
2019-01-08T09:03:22.909Z,101741.98
2019-01-08T09:05:52.718Z,101739.53
2019-01-08T09:08:22.395Z,101742.86
2019-01-08T09:10:53.480Z,101734.93
2019-01-08T09:13:23.259Z,101734.91
2019-01-08T09:15:53.074Z,101728.58
2019-01-08T09:18:23.155Z,101725.64
2019-01-08T09:20:52.908Z,101708.55
2019-01-08T09:23:22.694Z,101713.61
2019-01-08T09:25:53.882Z,101712.47
2019-01-08T09:28:23.708Z,101708.94
2019-01-08T09:30:53.563Z,101694.03
2019-01-08T09:33:23.451Z,101691.50
2019-01-08T09:35:53.117Z,101686.12
2019-01-08T09:38:22.940Z,101682.77
2019-01-08T09:40:53.978Z,101670.70
2019-01-08T09:43:23.935Z,101669.12
2019-01-08T09:45:53.724Z,101663.44
2019-01-08T09:48:23.678Z,101662.69
2019-01-08T09:50:53.444Z,101658.42
2019-01-08T09:53:23.025Z,101648.20
2019-01-08T09:55:53.233Z,101647.81
2019-01-08T09:58:23.017Z,101643.27
2019-01-08T10:00:52.624Z,101635.53
2019-01-08T10:03:22.463Z,101632.23
2019-01-08T10:05:52.145Z,101618.70
2019-01-08T10:08:21.897Z,101609.77
2019-01-08T10:10:51.754Z,101609.84
2019-01-08T10:13:21.665Z,101600.52
2019-01-08T10:15:51.685Z,101601.71
2019-01-08T10:18:21.586Z,101587.31
2019-01-08T10:20:51.667Z,101580.53
2019-01-08T10:23:23.865Z,101579.67
2019-01-08T10:25:54.108Z,101563.97
2019-01-08T10:28:23.777Z,101558.89
2019-01-08T10:30:53.791Z,101558.45
2019-01-08T10:33:23.527Z,101551.67
2019-01-08T10:35:53.358Z,101538.09
2019-01-08T10:38:23.425Z,101527.43
2019-01-08T10:40:53.134Z,101529.55
2019-01-08T10:43:23.136Z,101524.47
2019-01-08T10:45:53.052Z,101517.62
2019-01-08T10:48:22.949Z,101512.86
2019-01-08T10:50:52.659Z,101509.03
2019-01-08T10:53:23.879Z,101496.22
2019-01-08T10:55:53.852Z,101493.56
2019-01-08T10:58:23.634Z,101489.44
2019-01-08T11:00:54.715Z,101489.91
2019-01-08T11:03:24.600Z,101489.62
2019-01-08T11:05:54.306Z,101488.30
2019-01-08T11:08:24.487Z,101477.28
2019-01-08T11:10:54.430Z,101472.23
2019-01-08T11:13:25.196Z,101461.59
2019-01-08T11:15:54.856Z,101458.53
2019-01-08T11:18:24.610Z,101460.20
2019-01-08T11:20:54.513Z,101460.50
2019-01-08T11:23:24.385Z,101449.84
2019-01-08T11:25:54.148Z,101442.05
2019-01-08T11:28:23.859Z,101448.43
2019-01-08T11:30:53.892Z,101436.40
2019-01-08T11:33:23.806Z,101443.77
2019-01-08T11:35:53.413Z,101435.80
2019-01-08T11:38:24.385Z,101433.36
2019-01-08T11:40:54.544Z,101432.53
2019-01-08T11:43:24.152Z,101429.06
2019-01-08T11:45:54.133Z,101423.86
2019-01-08T11:48:24.007Z,101412.30
2019-01-08T11:50:53.815Z,101409.98
2019-01-08T11:53:23.564Z,101405.80
2019-01-08T11:55:53.353Z,101409.17
2019-01-08T11:58:23.573Z,101409.10
2019-01-08T12:00:54.519Z,101409.95
2019-01-08T12:03:24.232Z,101402.84
2019-01-08T12:05:54.499Z,101405.70
2019-01-08T12:08:25.605Z,101408.67
2019-01-08T12:10:55.471Z,101399.70
2019-01-08T12:13:25.922Z,101392.83
2019-01-08T12:15:58.257Z,101393.88
2019-01-08T12:18:28.149Z,101389.17
2019-01-08T12:20:57.922Z,101381.94
2019-01-08T12:23:28.901Z,101382.78
2019-01-08T12:25:58.499Z,101385.53
2019-01-08T12:28:29.530Z,101385.64
2019-01-08T12:30:59.361Z,101381.09
2019-01-08T12:33:29.080Z,101370.81
2019-01-08T12:36:00.336Z,101369.70
2019-01-08T12:38:30.031Z,101378.47
2019-01-08T12:40:59.942Z,101375.38
2019-01-08T12:43:29.835Z,101373.13
2019-01-08T12:45:59.353Z,101377.53
2019-01-08T12:48:29.202Z,101376.14
2019-01-08T12:50:58.989Z,101375.23
2019-01-08T12:53:28.594Z,101374.38
2019-01-08T12:55:58.303Z,101375.86
2019-01-08T12:58:28.148Z,101376.20
2019-01-08T13:00:57.952Z,101371.92
2019-01-08T13:03:27.857Z,101366.81
2019-01-08T13:05:58.955Z,101365.83
2019-01-08T13:08:28.699Z,101354.77
2019-01-08T13:10:58.639Z,101358.99
2019-01-08T13:13:28.589Z,101356.64
2019-01-08T13:15:58.366Z,101352.41
2019-01-08T13:18:28.380Z,101357.45
2019-01-08T13:20:58.260Z,101352.32
2019-01-08T13:23:27.930Z,101354.48
2019-01-08T13:25:57.938Z,101339.56
2019-01-08T13:28:27.909Z,101345.27
2019-01-08T13:30:57.559Z,101340.26
2019-01-08T13:33:27.272Z,101338.59
2019-01-08T13:35:58.229Z,101336.14
2019-01-08T13:38:27.980Z,101341.64
2019-01-08T13:40:57.683Z,101333.54
2019-01-08T13:43:27.517Z,101326.20
2019-01-08T13:45:57.479Z,101323.73
2019-01-08T13:48:27.210Z,101322.03
2019-01-08T13:50:57.066Z,101317.24
2019-01-08T13:53:26.883Z,101318.16
2019-01-08T13:55:56.602Z,101321.55
2019-01-08T13:58:26.545Z,101319.56
2019-01-08T14:00:56.439Z,101315.73
2019-01-08T14:03:26.387Z,101311.86
2019-01-08T14:05:56.221Z,101312.77
2019-01-08T14:08:25.880Z,101312.81
2019-01-08T14:10:56.542Z,101306.81
2019-01-08T14:13:26.727Z,101309.31
2019-01-08T14:15:56.546Z,101302.56
2019-01-08T14:18:26.690Z,101298.77
2019-01-08T14:20:56.559Z,101299.22
2019-01-08T14:23:26.432Z,101304.39
2019-01-08T14:25:57.012Z,101295.86
2019-01-08T14:28:26.649Z,101294.46
2019-01-08T14:30:56.478Z,101292.98
2019-01-08T14:33:26.268Z,101284.34
2019-01-08T14:35:56.244Z,101278.88
2019-01-08T14:38:26.218Z,101269.69
2019-01-08T14:40:56.046Z,101272.34
2019-01-08T14:43:25.815Z,101270.78
2019-01-08T14:45:55.809Z,101262.33
2019-01-08T14:48:25.598Z,101265.78
2019-01-08T14:50:55.455Z,101273.08
2019-01-08T14:53:26.137Z,101269.30
2019-01-08T14:55:55.948Z,101275.75
2019-01-08T14:58:25.882Z,101273.67
2019-01-08T15:00:55.678Z,101274.13
2019-01-08T15:03:25.482Z,101268.19
2019-01-08T15:05:55.322Z,101262.73
2019-01-08T15:08:25.172Z,101261.89
2019-01-08T15:10:54.835Z,101255.92
2019-01-08T15:13:24.894Z,101246.22
2019-01-08T15:15:54.756Z,101250.47
2019-01-08T15:18:24.610Z,101250.89
2019-01-08T15:20:54.321Z,101250.05
2019-01-08T15:23:23.971Z,101245.42
2019-01-08T15:25:56.186Z,101242.88
2019-01-08T15:28:25.944Z,101233.52
2019-01-08T15:30:55.799Z,101236.08
2019-01-08T15:33:25.726Z,101234.38
2019-01-08T15:35:55.745Z,101236.51
2019-01-08T15:38:25.469Z,101226.75
2019-01-08T15:40:56.689Z,101230.59
2019-01-08T15:43:26.345Z,101221.66
2019-01-08T15:45:55.944Z,101220.41
2019-01-08T15:48:25.901Z,101227.20
2019-01-08T15:50:55.871Z,101221.27
2019-01-08T15:53:25.810Z,101225.93
2019-01-08T15:55:55.553Z,101218.31
2019-01-08T15:58:25.494Z,101216.18
2019-01-08T16:00:55.534Z,101219.58
2019-01-08T16:03:26.634Z,101214.07
2019-01-08T16:05:56.487Z,101213.64
2019-01-08T16:08:26.448Z,101217.86
2019-01-08T16:10:56.384Z,101212.38
2019-01-08T16:13:26.130Z,101214.50
2019-01-08T16:15:57.186Z,101216.17
2019-01-08T16:18:27.008Z,101213.23
2019-01-08T16:20:56.755Z,101214.91
2019-01-08T16:23:26.501Z,101216.19
2019-01-08T16:25:56.741Z,101213.66
2019-01-08T16:28:26.648Z,101212.38
2019-01-08T16:30:56.505Z,101210.30
2019-01-08T16:33:26.292Z,101210.70
2019-01-08T16:35:56.090Z,101207.33
2019-01-08T16:38:26.010Z,101203.91
2019-01-08T16:40:56.037Z,101206.02
2019-01-08T16:43:26.752Z,101199.26
2019-01-08T16:45:58.386Z,101199.70
2019-01-08T16:48:28.233Z,101192.08
2019-01-08T16:50:58.109Z,101198.00
2019-01-08T16:53:27.937Z,101195.90
2019-01-08T16:55:57.799Z,101197.58
2019-01-08T16:58:27.859Z,101191.25
2019-01-08T17:00:57.402Z,101190.38
2019-01-08T17:03:27.242Z,101192.95
2019-01-08T17:05:57.194Z,101184.88
2019-01-08T17:08:26.857Z,101185.30
2019-01-08T17:10:56.688Z,101190.82
2019-01-08T17:13:27.720Z,101197.16
2019-01-08T17:15:57.532Z,101195.90
2019-01-08T17:18:27.353Z,101195.48
2019-01-08T17:20:57.356Z,101192.08
2019-01-08T17:23:27.043Z,101188.70
2019-01-08T17:25:56.862Z,101185.74
2019-01-08T17:28:26.710Z,101181.50
2019-01-08T17:30:56.539Z,101190.41
2019-01-08T17:33:33.808Z,101188.72
2019-01-08T17:35:57.998Z,101187.02
2019-01-08T17:38:29.097Z,101192.95
2019-01-08T17:40:58.757Z,101190.39
2019-01-08T17:43:33.406Z,101183.22
2019-01-08T17:46:00.737Z,101184.91
2019-01-08T17:48:30.653Z,101187.44
2019-01-08T17:51:02.912Z,101191.69
2019-01-08T17:53:32.694Z,101195.91
2019-01-08T17:56:02.743Z,101193.78
2019-01-08T17:58:40.887Z,101200.53
2019-01-08T18:01:20.072Z,101203.05
2019-01-08T18:03:50.332Z,101199.24
2019-01-08T18:06:20.219Z,101195.39
2019-01-08T18:08:50.412Z,101210.05
2019-01-08T18:11:20.152Z,101206.05
2019-01-08T18:13:50.553Z,101199.94
2019-01-08T18:16:21.639Z,101196.44
2019-01-08T18:18:51.573Z,101200.88
2019-01-08T18:21:21.730Z,101199.80
2019-01-08T18:23:51.716Z,101202.13
2019-01-08T18:26:21.827Z,101194.17
2019-01-08T18:28:52.969Z,101192.91
2019-01-08T18:31:22.991Z,101187.91
2019-01-08T18:33:53.032Z,101186.72
2019-01-08T18:36:23.223Z,101185.95
2019-01-08T18:38:53.070Z,101183.44
2019-01-08T18:41:22.883Z,101190.77
2019-01-08T18:43:52.714Z,101179.77
2019-01-08T18:46:22.570Z,101187.42
2019-01-08T18:48:52.629Z,101180.66
2019-01-08T18:51:22.651Z,101179.84
2019-01-08T18:53:52.663Z,101178.56
2019-01-08T18:56:22.733Z,101174.30
2019-01-08T18:58:52.665Z,101179.33
2019-01-08T19:01:22.689Z,101176.33
2019-01-08T19:03:59.781Z,101170.83
2019-01-08T19:06:24.539Z,101177.48
2019-01-08T19:09:32.991Z,101177.78
2019-01-08T19:12:02.832Z,101173.89
2019-01-08T19:14:38.037Z,101169.55
2019-01-08T19:17:08.034Z,101165.52
2019-01-08T19:19:37.923Z,101167.20
2019-01-08T19:22:08.096Z,101159.97
2019-01-08T19:24:38.039Z,101157.83
2019-01-08T19:27:07.997Z,101165.50
2019-01-08T19:29:39.134Z,101154.11
2019-01-08T19:32:09.170Z,101152.44
2019-01-08T19:34:38.971Z,101146.61
2019-01-08T19:37:08.679Z,101137.73
2019-01-08T19:39:38.725Z,101137.81
2019-01-08T19:42:08.888Z,101134.41
2019-01-08T19:44:38.933Z,101139.95
2019-01-08T19:47:09.961Z,101134.06
2019-01-08T19:49:39.831Z,101134.77
2019-01-08T19:52:09.782Z,101134.66
2019-01-08T19:54:39.729Z,101131.66
2019-01-08T19:57:09.563Z,101123.23
2019-01-08T19:59:39.354Z,101121.44
2019-01-08T20:02:09.058Z,101124.33
2019-01-08T20:04:39.030Z,101118.80
2019-01-08T20:07:09.002Z,101117.01
2019-01-08T20:09:38.791Z,101116.16
2019-01-08T20:12:08.642Z,101112.78
2019-01-08T20:14:38.426Z,101117.39
2019-01-08T20:17:08.241Z,101117.33
2019-01-08T20:19:38.184Z,101114.86
2019-01-08T20:22:07.940Z,101108.19
2019-01-08T20:28:35.997Z,101108.58
2019-01-08T20:31:54.050Z,101105.96
2019-01-08T20:34:53.578Z,101104.25
2019-01-08T20:38:05.181Z,101100.14
2019-01-08T20:45:10.721Z,101103.78
2019-01-08T20:48:30.019Z,101103.37
2019-01-08T20:51:56.092Z,101101.01
2019-01-08T20:58:41.971Z,101091.11
2019-01-08T21:02:04.383Z,101083.30
2019-01-08T21:08:44.131Z,101076.21
2019-01-08T21:12:02.243Z,101079.69
2019-01-08T21:15:09.465Z,101072.15
2019-01-08T21:18:28.108Z,101069.34
2019-01-08T21:21:26.906Z,101063.91
2019-01-08T21:24:28.392Z,101061.83
2019-01-08T21:27:47.115Z,101065.65
2019-01-08T21:31:09.972Z,101055.08
2019-01-08T21:34:13.753Z,101050.59
2019-01-08T21:37:21.948Z,101050.47
2019-01-08T21:40:17.584Z,101050.34
2019-01-08T21:43:35.190Z,101048.70
2019-01-08T21:48:04.814Z,101045.77
2019-01-08T21:53:44.714Z,101038.69
2019-01-08T22:14:03.866Z,101020.73
2019-01-08T22:17:08.849Z,101020.39
2019-01-08T22:20:51.609Z,101017.80
2019-01-08T22:24:25.992Z,101018.66
2019-01-08T22:27:11.525Z,101015.69
2019-01-08T22:30:13.389Z,101014.45
2019-01-08T22:33:24.470Z,101014.07
2019-01-08T22:36:48.913Z,101005.55
2019-01-08T22:40:10.282Z,101006.87
2019-01-08T22:43:45.772Z,101006.10
2019-01-08T22:47:17.602Z,100997.75
2019-01-08T22:50:21.149Z,100985.89
2019-01-08T22:53:57.121Z,100988.81
2019-01-08T23:00:39.796Z,100979.06
2019-01-08T23:04:11.271Z,100977.80
2019-01-08T23:11:24.193Z,100978.19
2019-01-08T23:14:13.986Z,100970.56
2019-01-08T23:21:05.630Z,100959.55
2019-01-08T23:23:58.017Z,100963.81
2019-01-08T23:27:02.779Z,100961.28
2019-01-08T23:30:13.039Z,100951.53
2019-01-08T23:33:08.687Z,100944.09
2019-01-08T23:36:25.265Z,100940.69
2019-01-08T23:39:29.792Z,100939.84
2019-01-08T23:43:07.949Z,100935.61
2019-01-08T23:46:29.823Z,100940.69
2019-01-08T23:50:10.853Z,100942.67
2019-01-08T23:57:14.250Z,100939.66
